createdAt,value
2019-02-26T00:01:14.448Z,102351.77
2019-02-26T00:04:03.187Z,102350.20
2019-02-26T00:06:54.135Z,102352.18
2019-02-26T00:09:45.929Z,102355.91
2019-02-26T00:12:35.692Z,102006.66
2019-02-26T00:15:25.660Z,102352.58
2019-02-26T00:18:16.852Z,102350.66
2019-02-26T00:21:07.800Z,102347.01
2019-02-26T00:23:58.072Z,102335.23
2019-02-26T00:26:48.087Z,102330.67
2019-02-26T00:29:38.182Z,102331.94
2019-02-26T00:32:29.821Z,102319.53
2019-02-26T00:35:21.221Z,102313.47
2019-02-26T00:38:13.325Z,102314.74
2019-02-26T00:41:03.932Z,102314.04
2019-02-26T00:43:55.278Z,102320.36
2019-02-26T00:46:45.861Z,102325.92
2019-02-26T00:49:35.780Z,102339.78
2019-02-26T00:52:25.239Z,102335.66
2019-02-26T00:55:15.243Z,102347.28
2019-02-26T00:58:05.934Z,102350.30
2019-02-26T01:00:56.314Z,102353.59
2019-02-26T01:03:47.125Z,102350.78
2019-02-26T01:06:37.870Z,102339.25
2019-02-26T01:09:29.362Z,102346.91
2019-02-26T01:12:19.213Z,102350.85
2019-02-26T01:15:12.272Z,102343.09
2019-02-26T01:18:03.203Z,102340.05
2019-02-26T01:20:54.805Z,102327.45
2019-02-26T01:23:45.723Z,102332.36
2019-02-26T01:26:35.626Z,102331.80
2019-02-26T01:29:26.047Z,102327.91
2019-02-26T01:32:18.090Z,102324.41
2019-02-26T01:35:10.685Z,102317.99
2019-02-26T01:38:00.589Z,102310.86
2019-02-26T01:40:51.892Z,102304.11
2019-02-26T01:43:41.696Z,102304.11
2019-02-26T01:46:34.414Z,102297.69
2019-02-26T01:49:26.627Z,102289.03
2019-02-26T01:52:17.461Z,102286.47
2019-02-26T01:55:10.394Z,102277.45
2019-02-26T01:58:00.063Z,102275.77
2019-02-26T02:00:49.750Z,102277.37
2019-02-26T02:03:39.318Z,102270.31
2019-02-26T02:06:30.373Z,102275.67
2019-02-26T02:09:22.755Z,102279.97
2019-02-26T02:12:12.841Z,102283.53
2019-02-26T02:15:02.805Z,102277.19
2019-02-26T02:17:52.351Z,102276.67
2019-02-26T02:20:42.232Z,102271.95
2019-02-26T02:23:32.039Z,102268.36
2019-02-26T02:26:21.782Z,102273.77
2019-02-26T02:29:12.840Z,102267.58
2019-02-26T02:32:05.083Z,102266.42
2019-02-26T02:34:58.278Z,102263.45
2019-02-26T02:37:46.550Z,102266.23
2019-02-26T02:40:39.902Z,102256.69
2019-02-26T02:43:28.332Z,102264.25
2019-02-26T02:46:17.798Z,102268.66
2019-02-26T02:49:09.686Z,102264.06
2019-02-26T02:52:01.469Z,102263.60
2019-02-26T02:54:51.880Z,102256.11
2019-02-26T02:57:42.050Z,102253.55
2019-02-26T03:00:34.342Z,102252.50
2019-02-26T03:03:23.188Z,102254.80
2019-02-26T03:06:12.911Z,102259.66
2019-02-26T03:09:03.682Z,102261.22
2019-02-26T03:11:55.404Z,102256.22
2019-02-26T03:14:45.191Z,102261.30
2019-02-26T03:17:35.028Z,102266.16
2019-02-26T03:20:28.746Z,102267.73
2019-02-26T03:23:20.014Z,102283.05
2019-02-26T03:26:12.574Z,102279.52
2019-02-26T03:29:00.560Z,102271.73
2019-02-26T03:31:54.792Z,102269.17
2019-02-26T03:34:41.977Z,102265.08
2019-02-26T03:37:34.174Z,102257.84
2019-02-26T03:40:24.929Z,102255.05
2019-02-26T03:43:16.214Z,102259.80
2019-02-26T03:46:06.206Z,102260.63
2019-02-26T03:48:56.268Z,102262.47
2019-02-26T03:51:46.495Z,102266.48
2019-02-26T03:54:39.838Z,102263.06
2019-02-26T03:57:28.085Z,102274.12
2019-02-26T04:00:19.916Z,102270.59
2019-02-26T04:03:12.447Z,102265.39
2019-02-26T04:06:03.193Z,102266.11
2019-02-26T04:08:53.776Z,102265.25
2019-02-26T04:11:47.424Z,102262.36
2019-02-26T04:14:36.067Z,102259.97
2019-02-26T04:17:28.138Z,102266.02
2019-02-26T04:20:17.657Z,102276.95
2019-02-26T04:23:08.962Z,102289.59
2019-02-26T04:26:44.382Z,102280.39
2019-02-26T04:30:16.251Z,102271.30
2019-02-26T04:33:49.422Z,102259.83
2019-02-26T04:37:38.316Z,102258.28
2019-02-26T04:41:19.544Z,102251.30
2019-02-26T04:44:50.051Z,102252.62
2019-02-26T04:47:40.567Z,102249.59
2019-02-26T04:50:32.387Z,102252.25
2019-02-26T04:53:23.041Z,102252.00
2019-02-26T04:56:15.013Z,102250.76
2019-02-26T04:59:06.245Z,102252.55
2019-02-26T05:01:57.405Z,102249.26
2019-02-26T05:04:47.283Z,102256.02
2019-02-26T05:07:38.499Z,102252.39
2019-02-26T05:10:31.819Z,102245.86
2019-02-26T05:13:22.010Z,102244.00
2019-02-26T05:16:12.256Z,102245.34
2019-02-26T05:19:01.953Z,102254.83
2019-02-26T05:21:53.513Z,102259.20
2019-02-26T05:24:47.099Z,102249.00
2019-02-26T05:27:36.328Z,102238.95
2019-02-26T05:30:27.303Z,102239.06
2019-02-26T05:33:18.471Z,102240.20
2019-02-26T05:36:11.555Z,102236.79
2019-02-26T05:39:02.303Z,102234.41
2019-02-26T05:41:55.562Z,102235.74
2019-02-26T05:44:45.365Z,102245.70
2019-02-26T05:47:35.419Z,102246.09
2019-02-26T05:50:25.082Z,102240.77
2019-02-26T05:53:15.153Z,102242.20
2019-02-26T05:56:05.405Z,102240.78
2019-02-26T05:58:55.282Z,102252.33
2019-02-26T06:01:46.562Z,102257.80
2019-02-26T06:04:38.391Z,102265.33
2019-02-26T06:07:31.323Z,102258.42
2019-02-26T06:10:21.563Z,102256.48
2019-02-26T06:13:13.581Z,102246.20
2019-02-26T06:16:05.372Z,102252.16
2019-02-26T06:18:55.203Z,102242.25
2019-02-26T06:21:47.413Z,102246.96
2019-02-26T06:24:38.080Z,102252.64
2019-02-26T06:27:27.911Z,102241.97
2019-02-26T06:30:18.694Z,102242.09
2019-02-26T06:33:09.713Z,102252.72
2019-02-26T06:36:01.752Z,102256.33
2019-02-26T06:38:53.915Z,102267.09
2019-02-26T06:41:44.368Z,102265.51
2019-02-26T06:44:36.868Z,102265.48
2019-02-26T06:47:29.287Z,102258.77
2019-02-26T06:50:19.059Z,102249.80
2019-02-26T06:53:10.989Z,102257.55
2019-02-26T06:56:00.774Z,102246.25
2019-02-26T06:58:50.878Z,102250.34
2019-02-26T07:01:41.985Z,102247.61
2019-02-26T07:04:31.709Z,102247.95
2019-02-26T07:07:21.534Z,102238.78
2019-02-26T07:10:16.306Z,102245.50
2019-02-26T07:13:07.437Z,102241.89
2019-02-26T07:15:57.343Z,102239.66
2019-02-26T07:18:47.595Z,102227.73
2019-02-26T07:21:38.010Z,102235.39
2019-02-26T07:24:29.331Z,102233.75
2019-02-26T07:27:18.987Z,102239.75
2019-02-26T07:30:09.686Z,102240.73
2019-02-26T07:32:59.771Z,102254.30
2019-02-26T07:35:49.419Z,102263.19
2019-02-26T07:38:41.605Z,102251.53
2019-02-26T07:41:31.036Z,102247.88
2019-02-26T07:44:23.436Z,102246.81
2019-02-26T07:47:12.488Z,102251.65
2019-02-26T07:50:04.634Z,102254.05
2019-02-26T07:52:56.905Z,102255.77
2019-02-26T07:55:46.916Z,102240.24
2019-02-26T07:58:39.077Z,102233.98
2019-02-26T08:01:28.526Z,102228.73
2019-02-26T08:04:18.721Z,102226.14
2019-02-26T08:07:08.504Z,102231.27
2019-02-26T08:09:58.580Z,102222.97
2019-02-26T08:12:49.392Z,102221.33
2019-02-26T08:15:39.872Z,102210.19
2019-02-26T08:18:29.701Z,102202.92
2019-02-26T08:21:21.739Z,102214.61
2019-02-26T08:24:13.039Z,102228.59
2019-02-26T08:27:03.395Z,102215.93
2019-02-26T08:29:56.973Z,102206.87
2019-02-26T08:32:51.151Z,102221.42
2019-02-26T08:35:38.394Z,102218.66
2019-02-26T08:38:30.065Z,102215.10
2019-02-26T08:41:19.478Z,102211.17
2019-02-26T08:44:09.523Z,102213.63
2019-02-26T08:46:59.547Z,102213.59
2019-02-26T08:49:49.604Z,102210.80
2019-02-26T08:52:39.582Z,102198.18
2019-02-26T08:55:29.347Z,102203.01
2019-02-26T08:58:19.108Z,102199.42
2019-02-26T09:01:08.971Z,102192.77
2019-02-26T09:04:00.689Z,102192.26
2019-02-26T09:06:51.910Z,102186.48
2019-02-26T09:09:41.746Z,102191.12
2019-02-26T09:12:31.843Z,102189.08
2019-02-26T09:15:22.212Z,102194.08
2019-02-26T09:18:12.255Z,102196.37
2019-02-26T09:21:01.298Z,102199.75
2019-02-26T09:23:54.938Z,102195.98
2019-02-26T09:26:43.181Z,102204.09
2019-02-26T09:29:34.344Z,102214.41
2019-02-26T09:32:24.376Z,102221.50
2019-02-26T09:35:16.880Z,102226.22
2019-02-26T09:38:07.758Z,102232.48
2019-02-26T09:40:57.557Z,102230.39
2019-02-26T09:43:48.131Z,102228.23
2019-02-26T09:46:39.356Z,102236.16
2019-02-26T09:49:31.456Z,102232.40
2019-02-26T09:52:25.178Z,102218.06
2019-02-26T09:55:14.492Z,102226.63
2019-02-26T09:58:04.440Z,102230.66
2019-02-26T10:00:54.240Z,102226.67
2019-02-26T10:03:44.025Z,102217.17
2019-02-26T10:06:34.951Z,102223.23
2019-02-26T10:09:24.742Z,102221.77
2019-02-26T10:12:15.674Z,102216.53
2019-02-26T10:15:06.338Z,102211.96
2019-02-26T10:17:58.790Z,102212.06
2019-02-26T10:20:49.928Z,102200.96
2019-02-26T10:23:39.535Z,102205.94
2019-02-26T10:26:30.764Z,102201.88
2019-02-26T10:29:20.730Z,102212.95
2019-02-26T10:32:11.774Z,102217.01
2019-02-26T10:35:01.857Z,102227.30
2019-02-26T10:37:53.888Z,102226.30
2019-02-26T10:40:53.546Z,102228.76
2019-02-26T10:43:35.173Z,102234.36
2019-02-26T10:46:24.982Z,102233.16
2019-02-26T10:49:15.020Z,102231.95
2019-02-26T10:52:04.940Z,102232.61
2019-02-26T10:54:55.663Z,102226.13
2019-02-26T10:57:47.805Z,102229.48
2019-02-26T11:00:38.140Z,102229.91
2019-02-26T11:03:29.865Z,102224.55
2019-02-26T11:06:21.250Z,102221.70
2019-02-26T11:09:18.007Z,102217.48
2019-02-26T11:12:08.315Z,102210.59
2019-02-26T11:14:58.562Z,102211.59
2019-02-26T11:17:51.336Z,102202.73
2019-02-26T11:20:41.026Z,102204.54
2019-02-26T11:23:33.398Z,102195.81
2019-02-26T11:26:22.225Z,102191.27
2019-02-26T11:29:12.050Z,102187.41
2019-02-26T11:32:04.231Z,102189.11
2019-02-26T11:34:55.118Z,102184.07
2019-02-26T11:37:47.200Z,102184.67
2019-02-26T11:40:37.003Z,102180.47
2019-02-26T11:43:28.938Z,102176.41
2019-02-26T11:46:20.006Z,102168.78
2019-02-26T11:49:11.878Z,102165.72
2019-02-26T11:52:04.411Z,102157.29
2019-02-26T11:54:53.252Z,102157.48
2019-02-26T11:57:45.682Z,102152.41
2019-02-26T12:00:45.502Z,102145.31
2019-02-26T12:03:36.373Z,102147.40
2019-02-26T12:06:25.672Z,102134.77
2019-02-26T12:09:16.206Z,102142.66
2019-02-26T12:12:08.669Z,102140.95
2019-02-26T12:14:57.872Z,102142.70
2019-02-26T12:17:51.758Z,102134.25
2019-02-26T12:20:43.449Z,102122.02
2019-02-26T12:23:34.480Z,102121.84
2019-02-26T12:26:25.556Z,102131.39
2019-02-26T12:29:18.657Z,102125.27
2019-02-26T12:32:08.819Z,102123.27
2019-02-26T12:34:58.995Z,102117.63
2019-02-26T12:37:50.117Z,102121.25
2019-02-26T12:40:44.677Z,102110.38
2019-02-26T12:43:36.108Z,102122.47
2019-02-26T12:46:27.534Z,102122.95
2019-02-26T12:49:18.440Z,102116.42
2019-02-26T12:52:09.444Z,102116.91
2019-02-26T12:55:00.812Z,102114.61
2019-02-26T12:57:52.799Z,102113.86
2019-02-26T13:00:42.709Z,102107.42
2019-02-26T13:03:38.107Z,102110.53
2019-02-26T13:06:25.180Z,102110.27
2019-02-26T13:09:15.263Z,102116.84
2019-02-26T13:12:05.025Z,102108.25
2019-02-26T13:15:02.308Z,102096.61
2019-02-26T13:17:48.877Z,102100.13
2019-02-26T13:20:38.038Z,102090.63
2019-02-26T13:23:28.226Z,102085.06
2019-02-26T13:26:19.743Z,102086.98
2019-02-26T13:29:09.536Z,102096.06
2019-02-26T13:32:00.206Z,102089.95
2019-02-26T13:34:52.502Z,102095.77
2019-02-26T13:37:42.481Z,102089.45
2019-02-26T13:40:38.190Z,102086.34
2019-02-26T13:43:23.968Z,102078.48
2019-02-26T13:46:14.172Z,102085.94
2019-02-26T13:49:03.949Z,102082.95
2019-02-26T13:51:53.779Z,102085.86
2019-02-26T13:54:43.646Z,102074.27
2019-02-26T13:57:33.698Z,102067.86
2019-02-26T14:00:26.750Z,102067.39
2019-02-26T14:03:15.413Z,102063.06
2019-02-26T14:06:05.714Z,102059.61
2019-02-26T14:08:55.750Z,102054.72
2019-02-26T14:11:47.012Z,102059.67
2019-02-26T14:14:36.579Z,102060.75
2019-02-26T14:17:26.311Z,102054.77
2019-02-26T14:20:15.919Z,102050.28
2019-02-26T14:23:05.523Z,102039.13
2019-02-26T14:25:55.519Z,102036.19
2019-02-26T14:28:45.809Z,102035.55
2019-02-26T14:31:35.611Z,102033.94
2019-02-26T14:34:25.822Z,102024.36
2019-02-26T14:37:15.576Z,102018.42
2019-02-26T14:40:07.207Z,102013.20
2019-02-26T14:42:57.068Z,102000.95
2019-02-26T14:45:46.947Z,102010.93
2019-02-26T14:48:36.979Z,102010.00
2019-02-26T14:51:28.150Z,101999.24
2019-02-26T14:54:18.298Z,102001.61
2019-02-26T14:57:08.193Z,101996.82
2019-02-26T14:59:57.986Z,101988.05
2019-02-26T15:02:47.789Z,101993.25
2019-02-26T15:05:37.574Z,101986.88
2019-02-26T15:08:27.624Z,101989.14
2019-02-26T15:11:17.262Z,101989.73
2019-02-26T15:14:07.317Z,101993.12
2019-02-26T15:16:57.577Z,101984.66
2019-02-26T15:19:50.453Z,101991.03
2019-02-26T15:22:38.716Z,101991.50
2019-02-26T15:25:29.049Z,101991.22
2019-02-26T15:28:19.556Z,101999.43
2019-02-26T15:31:09.679Z,101999.00
2019-02-26T15:34:00.754Z,101996.77
2019-02-26T15:36:50.791Z,101996.92
2019-02-26T15:39:41.869Z,101994.96
2019-02-26T15:42:32.071Z,101994.74
2019-02-26T15:45:23.931Z,101993.97
2019-02-26T15:48:13.859Z,101992.22
2019-02-26T15:51:03.416Z,101994.73
2019-02-26T15:53:55.670Z,101999.16
2019-02-26T15:56:45.258Z,102001.90
2019-02-26T15:59:35.613Z,102002.02
2019-02-26T16:02:28.312Z,102005.77
2019-02-26T16:05:17.737Z,101997.42
2019-02-26T16:08:07.473Z,102003.17
2019-02-26T16:10:58.558Z,102002.30
2019-02-26T16:13:49.623Z,102004.37
2019-02-26T16:16:40.044Z,102006.09
2019-02-26T16:19:29.683Z,102010.83
2019-02-26T16:22:19.251Z,102016.11
2019-02-26T16:25:09.544Z,102023.49
2019-02-26T16:27:59.392Z,102021.39
2019-02-26T16:30:49.588Z,102026.55
2019-02-26T16:33:39.270Z,102019.73
2019-02-26T16:36:31.600Z,102014.89
2019-02-26T16:39:22.572Z,102022.81
2019-02-26T16:42:12.362Z,102023.27
2019-02-26T16:45:02.092Z,102031.34
2019-02-26T16:47:53.188Z,102028.01
2019-02-26T16:50:45.155Z,102029.80
2019-02-26T16:53:34.498Z,102057.31
2019-02-26T16:56:24.366Z,102043.05
2019-02-26T16:59:15.159Z,102044.16
2019-02-26T17:02:05.434Z,102051.03
2019-02-26T17:04:55.137Z,102052.23
2019-02-26T17:07:45.598Z,102043.41
2019-02-26T17:10:35.457Z,102051.17
2019-02-26T17:13:25.236Z,102044.73
2019-02-26T17:16:15.201Z,102047.42
2019-02-26T17:19:05.089Z,102049.75
2019-02-26T17:21:54.555Z,102054.03
2019-02-26T17:24:44.536Z,102054.79
2019-02-26T17:27:36.581Z,102057.27
2019-02-26T17:30:26.165Z,102050.11
2019-02-26T17:33:15.777Z,102051.31
2019-02-26T17:36:05.210Z,102050.31
2019-02-26T17:38:55.057Z,102051.21
2019-02-26T17:41:45.331Z,102048.95
2019-02-26T17:44:34.744Z,102045.59
2019-02-26T17:47:24.715Z,102047.72
2019-02-26T17:50:19.484Z,102046.17
2019-02-26T17:53:09.517Z,102040.83
2019-02-26T17:55:59.720Z,102054.02
2019-02-26T17:58:49.869Z,102045.53
2019-02-26T18:01:40.056Z,102033.19
2019-02-26T18:04:29.951Z,102034.24
2019-02-26T18:07:21.735Z,102028.67
2019-02-26T18:10:13.519Z,102022.19
2019-02-26T18:13:03.341Z,102030.47
2019-02-26T18:15:56.117Z,102030.72
2019-02-26T18:18:43.926Z,102039.01
2019-02-26T18:21:34.015Z,102041.23
2019-02-26T18:24:24.053Z,102043.78
2019-02-26T18:27:14.127Z,102040.79
2019-02-26T18:30:05.426Z,102042.28
2019-02-26T18:32:57.366Z,102047.70
2019-02-26T18:35:46.515Z,102055.92
2019-02-26T18:38:36.395Z,102060.31
2019-02-26T18:41:26.184Z,102064.53
2019-02-26T18:44:17.839Z,102055.51
2019-02-26T18:47:07.903Z,102053.39
2019-02-26T18:49:57.351Z,102048.09
2019-02-26T18:52:47.443Z,102046.75
2019-02-26T18:55:36.975Z,102048.92
2019-02-26T18:58:27.368Z,102047.75
2019-02-26T19:01:17.087Z,102052.52
2019-02-26T19:04:07.130Z,102049.74
2019-02-26T19:06:59.471Z,102047.47
2019-02-26T19:09:48.854Z,102046.92
2019-02-26T19:12:39.844Z,102052.12
2019-02-26T19:15:29.986Z,102050.75
2019-02-26T19:18:20.150Z,102055.05
2019-02-26T19:21:10.157Z,102058.18
2019-02-26T19:24:04.408Z,102060.59
2019-02-26T19:26:51.266Z,102055.95
2019-02-26T19:29:40.769Z,102053.32
2019-02-26T19:32:30.419Z,102062.69
2019-02-26T19:35:20.695Z,102063.64
2019-02-26T19:38:10.794Z,102061.34
2019-02-26T19:41:05.084Z,102056.50
2019-02-26T19:43:54.444Z,102057.41
2019-02-26T19:46:44.899Z,102063.52
2019-02-26T19:49:36.834Z,102063.11
2019-02-26T19:52:25.987Z,102061.00
2019-02-26T19:55:23.613Z,102053.61
2019-02-26T19:58:12.859Z,102050.45
2019-02-26T20:01:02.741Z,102049.19
2019-02-26T20:03:52.444Z,101589.39
2019-02-26T20:06:42.719Z,102055.91
2019-02-26T20:09:32.860Z,102056.29
2019-02-26T20:12:22.962Z,102057.17
2019-02-26T20:15:13.438Z,102062.80
2019-02-26T20:18:02.888Z,102063.48
2019-02-26T20:20:52.342Z,102075.66
2019-02-26T20:23:42.483Z,102075.66
2019-02-26T20:26:32.759Z,102074.49
2019-02-26T20:29:22.898Z,102064.39
2019-02-26T20:32:12.927Z,101629.90
2019-02-26T20:35:02.760Z,102077.80
2019-02-26T20:37:54.332Z,102071.58
2019-02-26T20:40:48.727Z,102069.09
2019-02-26T20:43:37.327Z,102077.89
2019-02-26T20:46:27.714Z,102071.84
2019-02-26T20:49:17.742Z,102079.95
2019-02-26T20:52:08.416Z,102073.55
2019-02-26T20:54:58.791Z,102069.37
2019-02-26T20:57:48.708Z,102074.09
2019-02-26T21:00:42.539Z,102065.86
2019-02-26T21:03:31.380Z,102070.56
2019-02-26T21:06:21.584Z,102069.07
2019-02-26T21:09:12.106Z,102066.05
2019-02-26T21:12:03.109Z,102057.50
2019-02-26T21:14:52.902Z,102063.53
2019-02-26T21:17:42.752Z,102056.65
2019-02-26T21:20:32.581Z,102059.53
2019-02-26T21:23:22.807Z,102068.27
2019-02-26T21:26:12.564Z,102060.21
2019-02-26T21:29:05.697Z,102056.85
2019-02-26T21:31:54.122Z,102059.02
2019-02-26T21:34:47.315Z,102054.51
2019-02-26T21:37:36.079Z,102057.17
2019-02-26T21:40:26.055Z,102053.33
2019-02-26T21:43:15.715Z,102056.52
2019-02-26T21:46:05.731Z,102064.73
2019-02-26T21:48:55.750Z,102059.36
2019-02-26T21:51:45.995Z,102057.17
2019-02-26T21:54:36.793Z,102054.48
2019-02-26T21:57:26.828Z,102042.53
2019-02-26T22:00:17.579Z,102045.39
2019-02-26T22:03:07.777Z,102040.13
2019-02-26T22:06:04.981Z,102037.27
2019-02-26T22:08:49.646Z,102031.89
2019-02-26T22:11:39.681Z,102047.67
2019-02-26T22:14:29.461Z,102051.35
2019-02-26T22:17:19.571Z,102043.95
2019-02-26T22:20:21.644Z,102038.58
2019-02-26T22:23:02.865Z,102039.42
2019-02-26T22:25:54.055Z,102042.92
2019-02-26T22:28:43.959Z,102043.59
2019-02-26T22:31:34.597Z,102037.55
2019-02-26T22:34:24.618Z,102033.33
2019-02-26T22:37:14.423Z,102037.85
2019-02-26T22:40:04.731Z,102035.12
2019-02-26T22:42:54.605Z,102031.76
2019-02-26T22:45:44.662Z,102034.45
2019-02-26T22:48:34.847Z,102044.16
2019-02-26T22:51:24.507Z,102043.48
2019-02-26T22:54:14.362Z,102048.49
2019-02-26T22:57:04.311Z,102045.12
2019-02-26T22:59:54.085Z,102042.44
2019-02-26T23:02:44.119Z,102032.00
2019-02-26T23:05:34.117Z,102030.33
2019-02-26T23:08:23.981Z,102034.98
2019-02-26T23:11:16.062Z,102032.96
2019-02-26T23:14:08.012Z,102025.92
2019-02-26T23:16:58.699Z,102024.89
2019-02-26T23:19:49.605Z,102019.34
2019-02-26T23:22:39.788Z,102019.98
2019-02-26T23:25:30.846Z,102013.41
2019-02-26T23:28:21.949Z,102013.09
2019-02-26T23:31:12.679Z,102013.09
2019-02-26T23:34:02.766Z,102012.92
2019-02-26T23:36:52.971Z,102012.41
2019-02-26T23:39:43.234Z,102008.34
2019-02-26T23:42:33.478Z,102009.36
2019-02-26T23:45:24.223Z,102007.67
2019-02-26T23:48:14.401Z,102010.69
2019-02-26T23:51:04.191Z,102015.69
2019-02-26T23:53:53.934Z,102016.30
2019-02-26T23:56:43.794Z,102015.79
2019-02-26T23:59:34.794Z,102009.06
